createdAt,value
2018-11-26T00:03:39.721Z,100.00
2018-11-26T00:24:17.976Z,100.00
2018-11-26T00:44:57.225Z,100.00
2018-11-26T01:05:40.565Z,100.00
2018-11-26T01:26:18.624Z,100.00
2018-11-26T01:46:56.068Z,100.00
2018-11-26T02:07:34.286Z,100.00
2018-11-26T02:28:14.613Z,100.00
2018-11-26T02:48:52.822Z,100.00
2018-11-26T03:09:29.018Z,100.00
2018-11-26T03:30:08.081Z,99.66
2018-11-26T03:50:47.550Z,99.33
2018-11-26T04:11:23.741Z,100.00
2018-11-26T04:32:04.850Z,99.05
2018-11-26T04:52:44.326Z,97.72
2018-11-26T05:13:24.621Z,98.00
2018-11-26T05:33:59.575Z,97.57
2018-11-26T05:54:37.217Z,97.67
2018-11-26T06:15:18.505Z,97.02
2018-11-26T06:35:56.357Z,97.15
2018-11-26T06:56:34.586Z,97.00
2018-11-26T07:17:15.295Z,97.47
2018-11-26T07:37:51.510Z,97.55
2018-11-26T07:58:27.680Z,96.54
2018-11-26T08:19:06.739Z,95.25
2018-11-26T08:39:47.033Z,96.04
2018-11-26T09:00:27.322Z,97.20
2018-11-26T09:21:09.658Z,97.92
2018-11-26T09:41:47.905Z,96.72
2018-11-26T10:02:27.364Z,95.37
2018-11-26T10:23:01.516Z,94.63
2018-11-26T10:43:37.900Z,93.47
2018-11-26T11:04:16.767Z,91.38
2018-11-26T11:24:56.241Z,89.91
2018-11-26T11:45:31.614Z,88.33
2018-11-26T12:06:07.804Z,89.17
2018-11-26T12:26:44.181Z,88.74
2018-11-26T12:47:19.385Z,88.26
2018-11-26T13:07:58.650Z,88.43
2018-11-26T13:28:39.544Z,87.93
2018-11-26T13:49:16.155Z,91.19
2018-11-26T14:09:55.470Z,92.06
2018-11-26T14:30:33.458Z,92.95
2018-11-26T14:51:12.925Z,93.42
2018-11-26T15:11:53.274Z,94.08
2018-11-26T15:32:29.409Z,93.66
2018-11-26T15:53:13.793Z,92.86
2018-11-26T16:13:53.675Z,93.08
2018-11-26T16:34:32.328Z,93.26
2018-11-26T16:55:12.620Z,93.34
2018-11-26T17:15:49.627Z,93.72
2018-11-26T17:36:27.052Z,94.08
2018-11-26T17:56:59.975Z,92.99
2018-11-26T18:17:39.635Z,92.84
2018-11-26T18:38:14.823Z,93.25
2018-11-26T18:58:52.114Z,93.14
2018-11-26T19:19:29.256Z,93.30
2018-11-26T19:40:10.372Z,92.90
2018-11-26T20:00:47.790Z,92.52
2018-11-26T20:21:32.228Z,92.90
2018-11-26T20:42:10.420Z,92.80
2018-11-26T21:02:44.563Z,92.95
2018-11-26T21:23:22.805Z,92.71
2018-11-26T21:44:00.214Z,92.96
2018-11-26T22:04:38.541Z,92.11
2018-11-26T22:25:16.304Z,93.18
2018-11-26T22:45:54.962Z,92.87
2018-11-26T23:06:31.152Z,91.69
2018-11-26T23:27:07.344Z,92.19
2018-11-26T23:47:49.681Z,93.64
